DEFLP EDLW-EDLW

Flight info

Callsign DEFLP
Flight time 0h 27m
Altitude
Route
Aircraft PA28A

Departure

Time 2026-05-07 18:39
Airport Dortmund Airport (EDLW)

Arrival

Time 2026-05-07 19:06
Airport Dortmund Airport (EDLW)
Time Latitude Longitude Altitude Speed Heading
2026-05-07 18:30 51.51198 7.60447 422 ft 10 kts 261°
2026-05-07 18:30 51.51214 7.60349 425 ft 9 kts 235°
2026-05-07 18:30 51.51180 7.60269 425 ft 8 kts 227°
2026-05-07 18:30 51.51152 7.60197 419 ft 7 kts 257°
2026-05-07 18:31 51.51184 7.60159 425 ft 6 kts 10°
2026-05-07 18:31 51.51210 7.60204 425 ft 5 kts 60°
2026-05-07 18:31 51.51248 7.60310 419 ft 21 kts 60°
2026-05-07 18:31 51.51326 7.60531 423 ft 23 kts 60°
2026-05-07 18:32 51.51404 7.60755 421 ft 22 kts 60°
2026-05-07 18:32 51.51476 7.60959 419 ft 20 kts 59°
2026-05-07 18:32 51.51534 7.61059 418 ft 10 kts
2026-05-07 18:32 51.51574 7.61002 418 ft 7 kts 269°
2026-05-07 18:33 51.51554 7.60870 416 ft 23 kts 253°
2026-05-07 18:33 51.51529 7.60720 421 ft 6 kts 261°
2026-05-07 18:33 51.51527 7.60697 421 ft 0 kts 267°
2026-05-07 18:34 51.51527 7.60692 421 ft 5 kts 264°
2026-05-07 18:34 51.51527 7.60682 421 ft 0 kts 279°
2026-05-07 18:37 51.51527 7.60680 421 ft 3 kts 288°
2026-05-07 18:37 51.51630 7.60660 413 ft 18 kts 50°
2026-05-07 18:37 51.51658 7.60730 416 ft 4 kts 61°
2026-05-07 18:38 51.51676 7.60777 421 ft 16 kts 60°
2026-05-07 18:38 51.51845 7.61248 417 ft 77 kts 61°
2026-05-07 18:38 51.52148 7.62142 646 ft 85 kts 64°
2026-05-07 18:38 51.52403 7.62965 1011 ft 82 kts 65°
2026-05-07 18:39 51.52376 7.63839 1172 ft 85 kts 118°
2026-05-07 18:39 51.51924 7.64589 1262 ft 98 kts 152°
2026-05-07 18:39 51.51240 7.64409 1426 ft 112 kts 214°
2026-05-07 18:39 51.50749 7.63384 1436 ft 118 kts 239°
2026-05-07 18:40 51.50406 7.62162 1463 ft 122 kts 247°
2026-05-07 18:40 51.50069 7.60880 1482 ft 123 kts 244°
2026-05-07 18:40 51.49715 7.59548 1322 ft 134 kts 247°
2026-05-07 18:40 51.49498 7.58131 1353 ft 126 kts 277°
2026-05-07 18:41 51.49911 7.56968 1262 ft 119 kts 325°
2026-05-07 18:41 51.50346 7.56855 1474 ft 67 kts 35°
2026-05-07 18:41 51.50621 7.57489 1395 ft 79 kts 69°
2026-05-07 18:41 51.50820 7.58323 1045 ft 82 kts 90°
2026-05-07 18:42 51.51076 7.59087 707 ft 77 kts 74°
2026-05-07 18:42 51.51344 7.59839 574 ft 77 kts 64°
2026-05-07 18:42 51.51597 7.60596 725 ft 71 kts 59°
2026-05-07 18:42 51.51861 7.61279 966 ft 75 kts 58°
2026-05-07 18:43 51.52161 7.62012 1210 ft 80 kts 58°
2026-05-07 18:43 51.52186 7.62885 1347 ft 84 kts 107°
2026-05-07 18:43 51.51928 7.63739 1518 ft 86 kts 124°
2026-05-07 18:43 51.51386 7.64004 1686 ft 87 kts 195°
2026-05-07 18:44 51.50884 7.63311 1596 ft 99 kts 227°
2026-05-07 18:44 51.50520 7.62494 1489 ft 84 kts 236°
2026-05-07 18:44 51.50128 7.61843 1289 ft 81 kts 207°
2026-05-07 18:44 51.49821 7.61067 1104 ft 91 kts 245°
2026-05-07 18:45 51.49580 7.60064 1102 ft 98 kts 249°
2026-05-07 18:45 51.49396 7.58988 1105 ft 100 kts 256°
2026-05-07 18:45 51.49263 7.57930 1140 ft 92 kts 261°
2026-05-07 18:45 51.49214 7.56921 1116 ft 91 kts 284°
2026-05-07 18:46 51.49642 7.56281 1057 ft 90 kts 341°
2026-05-07 18:46 51.50161 7.56390 994 ft 80 kts 61°
2026-05-07 18:46 51.50392 7.57172 919 ft 73 kts 58°
2026-05-07 18:46 51.50643 7.57847 837 ft 66 kts 66°
2026-05-07 18:47 51.50858 7.58469 745 ft 65 kts 59°
2026-05-07 18:47 51.51092 7.59099 627 ft 64 kts 64°
2026-05-07 18:47 51.51303 7.59709 562 ft 59 kts 61°
2026-05-07 18:47 51.51509 7.60297 488 ft 66 kts 60°
2026-05-07 18:48 51.51726 7.60899 575 ft 59 kts 59°
2026-05-07 18:48 51.51965 7.61519 751 ft 72 kts 59°
2026-05-07 18:48 51.52258 7.62369 794 ft 93 kts 59°
2026-05-07 18:48 51.52557 7.63284 1023 ft 93 kts 63°
2026-05-07 18:49 51.52979 7.63968 1351 ft 84 kts 22°
2026-05-07 18:49 51.53535 7.64092 1451 ft 80 kts
2026-05-07 18:49 51.53846 7.63475 1527 ft 81 kts 264°
2026-05-07 18:49 51.53651 7.62549 1486 ft 91 kts 248°
2026-05-07 18:50 51.53430 7.61592 1530 ft 91 kts 251°
2026-05-07 18:50 51.53356 7.60600 1645 ft 85 kts 258°
2026-05-07 18:50 51.53492 7.59709 1657 ft 85 kts 324°
2026-05-07 18:50 51.53935 7.59863 1668 ft 75 kts 77°
2026-05-07 18:51 51.53563 7.60237 1663 ft 87 kts 210°
2026-05-07 18:51 51.53579 7.59406 1723 ft 82 kts 327°
2026-05-07 18:51 51.54043 7.59579 1690 ft 74 kts 67°
2026-05-07 18:51 51.53820 7.60169 1669 ft 75 kts 166°
2026-05-07 18:52 51.53421 7.59652 1666 ft 85 kts 262°
2026-05-07 18:52 51.53783 7.59087 1659 ft 81 kts 14°
2026-05-07 18:52 51.53899 7.59761 1632 ft 80 kts 136°
2026-05-07 18:52 51.53400 7.59652 1659 ft 87 kts 223°
2026-05-07 18:53 51.53348 7.58733 1688 ft 85 kts 312°
2026-05-07 18:53 51.53816 7.58841 1603 ft 82 kts 84°
2026-05-07 18:53 51.53354 7.59191 1581 ft 94 kts 208°
2026-05-07 18:53 51.53337 7.58305 1492 ft 97 kts 327°
2026-05-07 18:54 51.53810 7.58510 1481 ft 78 kts 71°
2026-05-07 18:54 51.53542 7.59202 1462 ft 82 kts 161°
2026-05-07 18:54 51.53074 7.58838 1481 ft 82 kts 234°
2026-05-07 18:54 51.52799 7.57986 1431 ft 85 kts 240°
2026-05-07 18:55 51.52513 7.57170 1365 ft 82 kts 238°
2026-05-07 18:55 51.52237 7.56399 1347 ft 88 kts 238°
2026-05-07 18:55 51.51936 7.55447 1439 ft 96 kts 242°
2026-05-07 18:55 51.51679 7.54486 1516 ft 89 kts 249°
2026-05-07 18:56 51.51529 7.53858 1506 ft 88 kts 245°
2026-05-07 18:56 51.51213 7.52703 1588 ft 80 kts 235°
2026-05-07 18:56 51.50790 7.52215 1646 ft 71 kts 185°
2026-05-07 18:56 51.50308 7.52344 1646 ft 71 kts 159°
2026-05-07 18:57 51.49768 7.52533 1706 ft 86 kts 152°
2026-05-07 18:57 51.49412 7.52965 1699 ft 95 kts 129°
2026-05-07 18:57 51.49179 7.53873 1848 ft 88 kts 84°
2026-05-07 18:57 51.49520 7.54767 1718 ft 104 kts 50°
2026-05-07 18:58 51.49933 7.55670 1475 ft 97 kts 63°
2026-05-07 18:58 51.50210 7.56565 1259 ft 84 kts 66°
2026-05-07 18:58 51.50435 7.57344 1099 ft 76 kts 60°
2026-05-07 18:58 51.50749 7.58133 825 ft 80 kts 62°
2026-05-07 18:59 51.51001 7.58864 675 ft 69 kts 63°
2026-05-07 18:59 51.51231 7.59494 568 ft 62 kts 58°
2026-05-07 18:59 51.51427 7.60065 809 ft 62 kts 54°
2026-05-07 18:59 51.51679 7.60747 921 ft 80 kts 76°
2026-05-07 19:00 51.51948 7.61593 710 ft 74 kts 63°
2026-05-07 19:00 51.52204 7.62275 1057 ft 68 kts 53°
2026-05-07 19:00 51.52492 7.62894 1369 ft 70 kts 52°
2026-05-07 19:00 51.52872 7.63112 1349 ft 62 kts 351°
2026-05-07 19:01 51.53167 7.62599 1196 ft 73 kts 281°
2026-05-07 19:01 51.53020 7.61815 1048 ft 75 kts 245°
2026-05-07 19:01 51.52772 7.60971 943 ft 88 kts 233°
2026-05-07 19:01 51.52456 7.60124 1020 ft 85 kts 236°
2026-05-07 19:02 51.52199 7.59187 1017 ft 97 kts 251°
2026-05-07 19:02 51.51866 7.58273 1038 ft 88 kts 213°
2026-05-07 19:02 51.51338 7.58137 939 ft 72 kts 155°
2026-05-07 19:02 51.50943 7.58550 807 ft 67 kts 115°
2026-05-07 19:03 51.51114 7.59241 774 ft 78 kts 52°
2026-05-07 19:03 51.51417 7.59979 561 ft 77 kts 64°
2026-05-07 19:03 51.51650 7.60691 453 ft 66 kts 64°
2026-05-07 19:03 51.51854 7.61257 416 ft 50 kts 62°
2026-05-07 19:04 51.51999 7.61695 412 ft 50 kts 64°
2026-05-07 19:04 51.52251 7.62397 406 ft 92 kts 65°
2026-05-07 19:04 51.52557 7.63299 830 ft 73 kts 61°
2026-05-07 19:04 51.52848 7.63865 962 ft 64 kts 26°
2026-05-07 19:05 51.53227 7.63577 809 ft 74 kts 296°
2026-05-07 19:05 51.53067 7.62827 616 ft 76 kts 232°
2026-05-07 19:05 51.52805 7.62134 487 ft 69 kts 234°
2026-05-07 19:05 51.52562 7.61417 421 ft 70 kts 237°
2026-05-07 19:06 51.52312 7.60847 415 ft 60 kts 234°
2026-05-07 19:06 51.51771 7.59617 919 ft 49 kts 193°
2026-05-07 19:06 51.51345 7.59020 958 ft 85 kts 257°
2026-05-07 19:07 51.51302 7.57925 1118 ft 99 kts 244°
2026-05-07 19:07 51.50850 7.58006 1409 ft 93 kts 116°
2026-05-07 19:07 51.50953 7.58928 1022 ft 93 kts 75°
2026-05-07 19:07 51.51301 7.59851 629 ft 105 kts 61°
2026-05-07 19:08 51.51709 7.60936 506 ft 105 kts 58°
2026-05-07 19:08 51.52049 7.61813 910 ft 90 kts 59°
2026-05-07 19:08 51.52545 7.62339 1319 ft 86 kts 355°
2026-05-07 19:08 51.53013 7.61739 1391 ft 92 kts 302°
2026-05-07 19:09 51.53296 7.60909 1264 ft 83 kts 280°
2026-05-07 19:09 51.53201 7.60010 1135 ft 81 kts 250°
2026-05-07 19:09 51.53000 7.59175 1254 ft 85 kts 243°
2026-05-07 19:09 51.52743 7.58224 1319 ft 97 kts 246°
2026-05-07 19:10 51.52459 7.57156 1416 ft 103 kts 246°
2026-05-07 19:10 51.52210 7.56074 1508 ft 111 kts 248°
2026-05-07 19:10 51.51922 7.54903 1616 ft 114 kts 247°
2026-05-07 19:10 51.51623 7.53628 1582 ft 124 kts 247°
2026-05-07 19:11 51.51326 7.52363 1593 ft 126 kts 248°
2026-05-07 19:11 51.51020 7.50992 1549 ft 129 kts 251°
2026-05-07 19:11 51.50541 7.49906 1644 ft 121 kts 206°
2026-05-07 19:11 51.49771 7.49788 1810 ft 105 kts 154°
2026-05-07 19:12 51.49165 7.50366 1918 ft 103 kts 143°
2026-05-07 19:12 51.48631 7.51276 1777 ft 116 kts 111°
2026-05-07 19:12 51.48649 7.52488 1888 ft 108 kts 70°
2026-05-07 19:12 51.49144 7.53544 1615 ft 123 kts 53°
2026-05-07 19:13 51.49572 7.54617 1545 ft 109 kts 62°
2026-05-07 19:13 51.49916 7.55667 1292 ft 101 kts 64°
2026-05-07 19:13 51.50227 7.56649 1072 ft 93 kts 64°
2026-05-07 19:13 51.50546 7.57532 924 ft 91 kts 61°
2026-05-07 19:14 51.50857 7.58400 813 ft 88 kts 63°
2026-05-07 19:14 51.51158 7.59275 663 ft 89 kts 62°
2026-05-07 19:14 51.51355 7.59854 578 ft 87 kts 62°
2026-05-07 19:14 51.51750 7.60986 475 ft 84 kts 62°
2026-05-07 19:15 51.51923 7.61505 651 ft 76 kts 64°
2026-05-07 19:15 51.52146 7.62230 983 ft 69 kts 63°
2026-05-07 19:15 51.52467 7.62857 1188 ft 79 kts 29°
2026-05-07 19:15 51.53019 7.62867 1345 ft 86 kts 353°
2026-05-07 19:16 51.53492 7.62308 1591 ft 82 kts 292°
2026-05-07 19:16 51.53435 7.61380 1672 ft 90 kts 252°
2026-05-07 19:16 51.53255 7.60390 1724 ft 92 kts 251°
2026-05-07 19:16 51.53047 7.59405 1753 ft 93 kts 249°
2026-05-07 19:17 51.52879 7.58351 1748 ft 99 kts 256°
2026-05-07 19:17 51.52657 7.57278 1766 ft 100 kts 246°
2026-05-07 19:17 51.52430 7.56250 1878 ft 94 kts 252°
2026-05-07 19:17 51.52262 7.55232 1944 ft 96 kts 253°
2026-05-07 19:18 51.52061 7.54195 2000 ft 99 kts 248°
2026-05-07 19:18 51.52064 7.53140 2018 ft 102 kts 288°
2026-05-07 19:18 51.52437 7.52114 1974 ft 105 kts 323°
2026-05-07 19:18 51.53094 7.51926 1997 ft 97 kts 28°
2026-05-07 19:19 51.53373 7.52729 2068 ft 81 kts 99°
2026-05-07 19:19 51.52996 7.53322 1926 ft 81 kts 166°
2026-05-07 19:19 51.52545 7.52869 1771 ft 83 kts 251°
2026-05-07 19:19 51.52769 7.52140 1564 ft 76 kts 351°
2026-05-07 19:20 51.53146 7.52528 1415 ft 63 kts 73°
2026-05-07 19:20 51.53091 7.53191 1247 ft 64 kts 125°
2026-05-07 19:20 51.52686 7.53032 1008 ft 81 kts 257°
2026-05-07 19:20 51.52991 7.52651 970 ft 62 kts 52°
2026-05-07 19:21 51.52780 7.53226 1042 ft 76 kts 131°
2026-05-07 19:21 51.52279 7.53817 975 ft 99 kts 142°
2026-05-07 19:21 51.51750 7.54521 974 ft 103 kts 132°
2026-05-07 19:21 51.51195 7.55305 978 ft 109 kts 137°
2026-05-07 19:22 51.50603 7.56133 941 ft 114 kts 133°
2026-05-07 19:22 51.50356 7.57170 1099 ft 95 kts 66°
2026-05-07 19:22 51.50716 7.57991 975 ft 81 kts 58°
2026-05-07 19:22 51.50984 7.58741 796 ft 73 kts 65°
2026-05-07 19:23 51.51208 7.59438 613 ft 70 kts 62°
2026-05-07 19:23 51.51436 7.60085 470 ft 63 kts 63°
2026-05-07 19:23 51.51650 7.60691 422 ft 60 kts 60°
2026-05-07 19:23 51.51826 7.61218 415 ft 47 kts 58°
2026-05-07 19:24 51.51994 7.61694 429 ft 65 kts 64°
2026-05-07 19:24 51.52206 7.62370 655 ft 74 kts 68°
2026-05-07 19:24 51.52500 7.63168 721 ft 92 kts 60°
2026-05-07 19:24 51.52846 7.63967 1088 ft 81 kts 26°
2026-05-07 19:25 51.53308 7.63716 1479 ft 82 kts 291°
2026-05-07 19:25 51.53152 7.62787 1601 ft 98 kts 247°
2026-05-07 19:25 51.52965 7.61773 1801 ft 92 kts 250°
2026-05-07 19:25 51.52704 7.60796 1905 ft 95 kts 242°
2026-05-07 19:26 51.52400 7.59855 1997 ft 101 kts 240°
2026-05-07 19:26 51.52007 7.58763 1869 ft 116 kts 237°
2026-05-07 19:26 51.51599 7.57694 1952 ft 111 kts 238°
2026-05-07 19:26 51.51187 7.56595 1911 ft 119 kts 236°
2026-05-07 19:27 51.50679 7.55513 1907 ft 117 kts 222°
2026-05-07 19:27 51.50086 7.55313 2302 ft 70 kts 130°
2026-05-07 19:27 51.49992 7.56179 2201 ft 91 kts 106°
2026-05-07 19:27 51.50040 7.57098 1575 ft 97 kts 79°
2026-05-07 19:28 51.50534 7.57786 1152 ft 94 kts 35°
2026-05-07 19:28 51.50819 7.58517 973 ft 68 kts 49°
2026-05-07 19:28 51.51144 7.59237 762 ft 85 kts 57°
2026-05-07 19:28 51.51332 7.59779 566 ft 77 kts 60°
2026-05-07 19:29 51.51572 7.60472 427 ft 59 kts 61°
2026-05-07 19:29 51.51740 7.60955 391 ft 39 kts 60°
2026-05-07 19:29 51.51779 7.61062 422 ft 8 kts 61°
2026-05-07 19:29 51.51915 7.61448 388 ft 64 kts 62°
2026-05-07 19:30 51.51821 7.62180 455 ft 84 kts 129°
2026-05-07 19:30 51.51746 7.62295 403 ft 0 kts 41°
2026-05-07 19:30 51.52008 7.62918 590 ft 100 kts 90°
2026-05-07 19:31 51.51451 7.63045 465 ft 85 kts 201°
2026-05-07 19:31 51.50994 7.62698 791 ft 70 kts 208°
2026-05-07 19:31 51.50557 7.62216 1048 ft 76 kts 212°
2026-05-07 19:31 51.50101 7.61649 1059 ft 109 kts 214°
2026-05-07 19:32 51.49699 7.60565 1200 ft 112 kts 244°
2026-05-07 19:32 51.49355 7.59394 1165 ft 126 kts 240°
2026-05-07 19:32 51.48971 7.58249 1497 ft 104 kts 241°
2026-05-07 19:32 51.48638 7.57240 1620 ft 109 kts 238°
2026-05-07 19:33 51.48292 7.56179 1743 ft 102 kts 247°
2026-05-07 19:33 51.48104 7.55098 1954 ft 97 kts 256°
2026-05-07 19:33 51.47995 7.53993 2043 ft 103 kts 265°
2026-05-07 19:33 51.47978 7.52864 2191 ft 102 kts 269°
2026-05-07 19:34 51.48008 7.51722 2327 ft 98 kts 281°
2026-05-07 19:34 51.48480 7.51122 2457 ft 95 kts 359°
2026-05-07 19:34 51.48902 7.51943 2183 ft 107 kts 73°
2026-05-07 19:34 51.49038 7.53114 2023 ft 103 kts 78°
2026-05-07 19:35 51.49335 7.54184 1853 ft 104 kts 58°
2026-05-07 19:35 51.49744 7.55190 1636 ft 107 kts 59°
2026-05-07 19:35 51.50111 7.56190 1529 ft 99 kts 59°
2026-05-07 19:35 51.50455 7.57174 1392 ft 103 kts 61°
2026-05-07 19:36 51.50814 7.58241 1368 ft 110 kts 64°
2026-05-07 19:36 51.51197 7.59341 1405 ft 112 kts 58°
2026-05-07 19:36 51.51606 7.60332 1569 ft 108 kts 65°
2026-05-07 19:36 51.51905 7.61410 1629 ft 106 kts 63°
2026-05-07 19:37 51.52262 7.62513 1541 ft 109 kts 52°
2026-05-07 19:37 51.52950 7.62968 1532 ft 116 kts
2026-05-07 19:37 51.53675 7.62679 1745 ft 93 kts 304°
2026-05-07 19:37 51.53578 7.61783 1952 ft 101 kts 224°
2026-05-07 19:38 51.53231 7.60702 2009 ft 116 kts 286°
2026-05-07 19:38 51.53845 7.60428 2158 ft 110 kts 54°
2026-05-07 19:38 51.53435 7.61081 2318 ft 121 kts 210°
2026-05-07 19:38 51.53483 7.59962 2379 ft 99 kts 315°
2026-05-07 19:39 51.53723 7.58819 2210 ft 122 kts 269°
2026-05-07 19:39 51.53656 7.57891 2309 ft 126 kts 261°
2026-05-07 19:39 51.53343 7.55889 2204 ft 154 kts 254°
2026-05-07 19:39 51.53171 7.54757 2228 ft 156 kts 257°
2026-05-07 19:40 51.52945 7.53030 2251 ft 158 kts 259°
2026-05-07 19:40 51.52734 7.51299 2240 ft 158 kts 258°
2026-05-07 19:40 51.52437 7.49629 2347 ft 151 kts 242°
2026-05-07 19:40 51.51740 7.48497 2683 ft 138 kts 213°
2026-05-07 19:41 51.50804 7.47964 2708 ft 147 kts 187°
2026-05-07 19:41 51.49835 7.47863 2261 ft 129 kts 174°
2026-05-07 19:41 51.48935 7.48608 1931 ft 147 kts 145°
2026-05-07 19:41 51.48336 7.49642 2081 ft 138 kts 106°
2026-05-07 19:42 51.48493 7.51196 1950 ft 148 kts 73°
2026-05-07 19:42 51.48893 7.52882 1551 ft 161 kts 65°
2026-05-07 19:42 51.49410 7.54349 1736 ft 142 kts 58°
2026-05-07 19:42 51.50009 7.55751 1667 ft 143 kts 57°
2026-05-07 19:43 51.50555 7.57023 1518 ft 148 kts 57°
2026-05-07 19:43 51.51286 7.58107 1582 ft 140 kts 24°
2026-05-07 19:43 51.52191 7.57888 1728 ft 138 kts 316°
2026-05-07 19:43 51.52374 7.56473 1984 ft 117 kts 265°
2026-05-07 19:44 51.51982 7.55699 1975 ft 82 kts 188°
2026-05-07 19:44 51.51468 7.55880 1801 ft 76 kts 148°
2026-05-07 19:44 51.50996 7.56338 1562 ft 80 kts 141°
2026-05-07 19:44 51.50640 7.57023 1327 ft 78 kts 110°
2026-05-07 19:45 51.50665 7.57850 1130 ft 74 kts 73°
2026-05-07 19:45 51.50900 7.58566 929 ft 73 kts 58°
2026-05-07 19:45 51.51152 7.59260 723 ft 71 kts 62°
2026-05-07 19:45 51.51386 7.59927 539 ft 63 kts 63°
2026-05-07 19:46 51.51589 7.60526 428 ft 54 kts 63°
2026-05-07 19:46 51.51742 7.60971 420 ft 39 kts 60°
2026-05-07 19:46 51.51858 7.61292 416 ft 28 kts 62°
2026-05-07 19:46 51.51815 7.61495 413 ft 14 kts 157°
2026-05-07 19:47 51.51766 7.61523 413 ft 1 kts 146°
2026-05-07 19:47 51.51663 7.61506 415 ft 0 kts 146°
2026-05-07 19:47 51.51652 7.61536 414 ft 0 kts 146°